Time;durP1;ratioP1;P1;durP2;ratioP2;P2;SDS_P1;SDS_P2;PMS_P1;PMS_P2;Temp;Humidity;BMP_temperature;BMP_pressure;BME280_temperature;BME280_humidity;BME280_pressure;Samples;Min_cycle;Max_cycle;Signal;HPM_P1;HPM_P2
2023/01/16 00:00:53;;;;;;;7.28;1.20;;;4.30;99.90;;;;;;4713402;28;10000542;-73
2023/01/16 00:03:19;;;;;;;5.90;1.00;;;4.40;99.90;;;;;;5063416;28;20070;-73
2023/01/16 00:05:45;;;;;;;7.35;1.17;;;4.40;99.90;;;;;;5065013;28;20077;-73
2023/01/16 00:08:11;;;;;;;3.80;1.00;;;4.40;99.90;;;;;;5067835;28;20488;-73
2023/01/16 00:10:37;;;;;;;1.95;1.10;;;4.40;99.90;;;;;;5063803;28;20028;-73
2023/01/16 00:13:02;;;;;;;3.70;0.80;;;4.40;99.90;;;;;;5062458;28;20050;-73
2023/01/16 00:15:28;;;;;;;3.75;0.98;;;4.40;99.90;;;;;;5049927;28;20013;-73
2023/01/16 00:17:54;;;;;;;7.63;1.20;;;4.40;99.90;;;;;;5063150;28;20380;-73
2023/01/16 00:20:19;;;;;;;4.40;1.00;;;4.40;99.90;;;;;;5060283;28;20491;-73
2023/01/16 00:22:45;;;;;;;5.72;1.10;;;4.50;99.90;;;;;;5061883;28;20032;-73
2023/01/16 00:25:11;;;;;;;2.00;0.85;;;4.50;99.90;;;;;;5061266;28;20037;-73
2023/01/16 00:27:37;;;;;;;4.93;1.08;;;4.50;99.90;;;;;;5053492;28;20174;-73
2023/01/16 00:30:04;;;;;;;4.28;1.00;;;4.50;99.90;;;;;;5066336;28;20111;-73
2023/01/16 00:32:29;;;;;;;3.45;0.95;;;4.50;99.90;;;;;;5058180;28;20025;-73
2023/01/16 00:34:55;;;;;;;6.72;1.33;;;4.50;99.90;;;;;;5060229;28;20023;-73
2023/01/16 00:37:20;;;;;;;3.50;1.35;;;4.40;99.90;;;;;;5064647;28;20035;-73
2023/01/16 00:39:46;;;;;;;7.22;1.45;;;4.40;99.90;;;;;;5065482;28;20095;-72
2023/01/16 00:42:11;;;;;;;5.22;1.20;;;4.40;99.90;;;;;;5061771;28;20578;-72
2023/01/16 00:44:37;;;;;;;4.88;1.25;;;4.40;99.90;;;;;;5072183;28;20044;-72
2023/01/16 00:47:03;;;;;;;6.93;1.52;;;4.40;99.90;;;;;;5068728;28;20527;-73
2023/01/16 00:49:28;;;;;;;5.47;1.52;;;4.40;99.90;;;;;;5062975;28;20108;-72
2023/01/16 00:51:54;;;;;;;4.80;1.58;;;4.30;99.90;;;;;;5067679;28;20500;-73
2023/01/16 00:54:20;;;;;;;9.75;1.90;;;4.30;99.90;;;;;;5056397;28;20940;-73
2023/01/16 00:56:45;;;;;;;6.82;1.95;;;4.40;99.90;;;;;;5065340;28;20024;-73
2023/01/16 00:59:11;;;;;;;7.82;1.70;;;4.30;99.90;;;;;;5065714;28;20024;-73
2023/01/16 01:01:37;;;;;;;8.68;1.83;;;4.30;99.90;;;;;;5063258;28;20029;-73
2023/01/16 01:04:04;;;;;;;7.38;2.10;;;4.30;99.90;;;;;;5057164;28;20020;-73
2023/01/16 01:06:29;;;;;;;6.50;1.77;;;4.30;99.90;;;;;;5061198;28;20027;-73
2023/01/16 01:08:56;;;;;;;8.70;1.85;;;4.30;99.90;;;;;;5060105;28;20016;-73
2023/01/16 01:11:22;;;;;;;6.18;1.80;;;4.30;99.90;;;;;;5041762;28;20047;-73
2023/01/16 01:13:48;;;;;;;5.50;1.88;;;4.30;99.90;;;;;;5067810;28;20030;-73
2023/01/16 01:16:14;;;;;;;6.35;1.83;;;4.30;99.90;;;;;;5062112;28;20241;-72
2023/01/16 01:18:39;;;;;;;5.80;1.67;;;4.30;99.90;;;;;;5062917;28;20410;-72
2023/01/16 01:21:05;;;;;;;7.00;1.85;;;4.30;99.90;;;;;;5058195;28;20017;-73
2023/01/16 01:23:31;;;;;;;7.93;1.92;;;4.30;99.90;;;;;;5063007;28;20032;-73
2023/01/16 01:25:57;;;;;;;7.45;1.60;;;4.30;99.90;;;;;;5058372;28;20025;-72
2023/01/16 01:28:23;;;;;;;8.68;2.15;;;4.20;99.90;;;;;;5060090;28;20024;-72
2023/01/16 01:30:48;;;;;;;9.05;2.22;;;4.20;99.90;;;;;;5057877;28;20024;-73
2023/01/16 01:33:14;;;;;;;5.03;1.65;;;4.30;99.90;;;;;;5061843;28;20074;-73
2023/01/16 01:35:40;;;;;;;6.93;2.10;;;4.30;99.90;;;;;;5062148;28;20012;-73
2023/01/16 01:38:05;;;;;;;5.43;1.80;;;4.30;99.90;;;;;;5065982;28;20032;-74
2023/01/16 01:40:32;;;;;;;6.47;1.88;;;4.30;99.90;;;;;;5058572;28;20028;-73
2023/01/16 01:42:58;;;;;;;8.35;2.00;;;4.20;99.90;;;;;;5056093;28;20447;-73
2023/01/16 01:45:29;;;;;;;8.88;1.80;;;4.30;99.90;;;;;;5060027;28;20032;-74
2023/01/16 01:48:23;;;;;;;6.03;1.55;;;4.30;99.90;;;;;;5067986;28;20029;-74
2023/01/16 01:51:24;;;;;;;8.63;1.67;;;4.30;99.90;;;;;;5062357;28;20441;-73
2023/01/16 01:53:59;;;;;;;8.43;1.77;;;4.30;99.90;;;;;;5017420;28;20045;-72
2023/01/16 01:56:32;;;;;;;4.65;1.25;;;4.40;99.90;;;;;;5066107;28;20108;-73
2023/01/16 01:59:07;;;;;;;3.47;1.30;;;4.40;99.90;;;;;;5057451;28;20230;-73
2023/01/16 02:01:33;;;;;;;6.72;1.40;;;4.40;99.90;;;;;;5047639;28;20028;-73
2023/01/16 02:04:02;;;;;;;5.72;1.60;;;4.40;99.90;;;;;;5064981;28;20012;-73
2023/01/16 02:06:53;;;;;;;5.57;1.58;;;4.40;99.90;;;;;;5054237;28;20040;-72
2023/01/16 02:09:21;;;;;;;5.05;1.40;;;4.40;99.90;;;;;;5057528;28;20729;-73
2023/01/16 02:12:00;;;;;;;5.47;1.70;;;4.40;99.90;;;;;;5059217;28;20473;-73
2023/01/16 02:14:28;;;;;;;5.00;1.55;;;4.40;99.90;;;;;;5062230;28;20033;-73
2023/01/16 02:20:09;;;;;;;4.03;1.52;;;4.40;99.90;;;;;;5059305;28;20046;-73
2023/01/16 02:23:02;;;;;;;6.68;1.63;;;4.50;99.90;;;;;;5079336;28;20028;-73
2023/01/16 02:25:52;;;;;;;4.13;1.80;;;4.50;99.90;;;;;;5068404;28;20431;-74
2023/01/16 02:28:45;;;;;;;4.07;1.58;;;4.40;99.90;;;;;;5069709;28;20036;-73
2023/01/16 02:31:45;;;;;;;4.57;1.48;;;4.40;99.90;;;;;;5057511;28;20352;-73
2023/01/16 02:34:32;;;;;;;5.07;1.58;;;4.40;99.90;;;;;;5053336;28;20065;-73
2023/01/16 02:37:03;;;;;;;3.58;1.25;;;4.40;99.90;;;;;;5062436;28;20091;-73
2023/01/16 02:39:46;;;;;;;3.90;1.42;;;4.40;99.90;;;;;;5067427;28;20023;-73
2023/01/16 02:42:39;;;;;;;2.78;1.40;;;4.30;99.90;;;;;;5065995;28;20032;-74
2023/01/16 02:45:25;;;;;;;5.35;1.20;;;4.30;99.90;;;;;;5061475;28;20028;-73
2023/01/16 02:48:45;;;;;;;5.50;1.42;;;4.40;99.90;;;;;;5061667;28;20158;-73
2023/01/16 02:51:23;;;;;;;7.68;1.48;;;4.30;99.90;;;;;;4983878;28;20509;-73
2023/01/16 02:54:02;;;;;;;6.68;1.63;;;4.30;99.90;;;;;;5059558;28;20024;-73
2023/01/16 02:56:53;;;;;;;5.28;1.80;;;4.40;99.90;;;;;;5057086;28;20032;-73
2023/01/16 02:59:21;;;;;;;2.28;1.25;;;4.40;99.90;;;;;;5055775;28;20025;-73
2023/01/16 03:01:49;;;;;;;7.55;1.40;;;4.40;99.90;;;;;;5066818;28;20041;-73
2023/01/16 03:04:36;;;;;;;3.67;1.20;;;4.40;99.90;;;;;;5064979;28;20090;-73
2023/01/16 03:07:22;;;;;;;4.07;1.08;;;4.40;99.90;;;;;;5066605;28;20016;-73
2023/01/16 03:10:09;;;;;;;6.60;1.20;;;4.40;99.90;;;;;;5061501;28;20017;-73
2023/01/16 03:13:00;;;;;;;5.10;1.60;;;4.40;99.90;;;;;;5056039;28;20776;-73
2023/01/16 03:15:39;;;;;;;5.00;1.80;;;4.50;99.90;;;;;;5060815;28;20734;-72
2023/01/16 03:18:21;;;;;;;3.17;1.17;;;4.50;99.90;;;;;;5062578;28;20028;-73
2023/01/16 03:20:56;;;;;;;9.52;1.98;;;4.50;99.90;;;;;;5060022;28;20584;-73
2023/01/16 03:23:32;;;;;;;5.70;1.50;;;4.50;99.90;;;;;;5070566;28;20032;-73
2023/01/16 03:26:05;;;;;;;6.45;1.50;;;4.40;99.90;;;;;;5068346;28;20164;-73
2023/01/16 03:28:46;;;;;;;;;;;4.40;99.90;;;;;;5066644;28;20032;-73
2023/01/16 03:31:33;;;;;;;5.53;1.80;;;4.40;99.90;;;;;;5058546;28;20000;-73
2023/01/16 03:34:08;;;;;;;5.75;1.55;;;4.40;99.90;;;;;;5063624;28;20492;-73
2023/01/16 03:36:46;;;;;;;6.82;2.00;;;4.40;99.90;;;;;;5064450;28;20029;-74
2023/01/16 03:39:14;;;;;;;7.47;1.40;;;4.30;99.90;;;;;;5065587;28;20021;-73
2023/01/16 03:41:43;;;;;;;8.73;1.80;;;4.30;99.90;;;;;;5063830;28;20067;-74
2023/01/16 03:44:16;;;;;;;5.03;1.50;;;4.30;99.90;;;;;;5060227;28;20040;-74
2023/01/16 03:46:49;;;;;;;10.73;1.90;;;4.30;99.90;;;;;;5061752;28;20024;-74
2023/01/16 03:49:19;;;;;;;8.63;1.50;;;4.30;99.90;;;;;;5056927;28;20045;-74
2023/01/16 03:51:49;;;;;;;5.78;1.77;;;4.30;99.90;;;;;;5056975;28;20263;-74
2023/01/16 03:54:40;;;;;;;5.85;1.83;;;4.30;99.90;;;;;;5067987;28;20500;-73
2023/01/16 03:57:08;;;;;;;6.38;1.50;;;4.30;99.90;;;;;;5067536;28;20086;-73
2023/01/16 03:59:36;;;;;;;8.25;1.70;;;4.30;99.90;;;;;;5068043;28;20033;-74
2023/01/16 04:02:17;;;;;;;5.97;1.50;;;4.30;99.90;;;;;;5057170;28;20485;-74
2023/01/16 04:05:14;;;;;;;7.20;1.60;;;4.30;99.90;;;;;;5064495;28;20032;-75
2023/01/16 04:07:40;;;;;;;4.65;1.55;;;4.30;99.90;;;;;;5060147;28;20052;-73
2023/01/16 04:10:12;;;;;;;5.28;1.90;;;4.30;99.90;;;;;;5066869;28;20161;-74
2023/01/16 04:12:45;;;;;;;6.60;1.50;;;4.30;99.90;;;;;;5065425;28;20036;-73
2023/01/16 04:15:11;;;;;;;6.43;2.28;;;4.30;99.90;;;;;;5065901;28;20043;-73
2023/01/16 04:17:39;;;;;;;4.88;1.70;;;4.30;99.90;;;;;;5063672;28;20021;-73
2023/01/16 04:20:06;;;;;;;4.47;1.58;;;4.30;99.90;;;;;;5059478;28;20453;-73
2023/01/16 04:22:32;;;;;;;5.72;1.55;;;4.30;99.90;;;;;;5062690;28;20033;-73
2023/01/16 04:25:00;;;;;;;7.60;1.45;;;4.20;99.90;;;;;;5065190;28;20035;-73
2023/01/16 04:27:26;;;;;;;6.13;1.52;;;4.30;99.90;;;;;;5063410;28;20036;-73
2023/01/16 04:29:51;;;;;;;7.47;2.40;;;4.30;99.90;;;;;;5058702;28;20397;-73
2023/01/16 04:32:17;;;;;;;6.45;1.75;;;4.30;99.90;;;;;;5067032;28;20023;-73
2023/01/16 04:34:43;;;;;;;3.63;1.60;;;4.30;99.90;;;;;;5057463;28;20021;-73
2023/01/16 04:37:12;;;;;;;5.85;1.67;;;4.30;99.90;;;;;;5056498;28;20032;-73
2023/01/16 04:39:37;;;;;;;4.88;1.55;;;4.30;99.90;;;;;;5062759;28;20029;-73
2023/01/16 04:42:03;;;;;;;5.90;1.70;;;4.30;99.90;;;;;;5063205;28;20017;-73
2023/01/16 04:44:29;;;;;;;8.00;2.10;;;4.20;99.90;;;;;;5062449;28;20117;-73
2023/01/16 04:46:54;;;;;;;6.32;1.90;;;4.20;99.90;;;;;;5069670;28;20039;-73
2023/01/16 04:49:20;;;;;;;7.28;1.85;;;4.20;99.90;;;;;;5063231;28;20116;-74
2023/01/16 04:51:45;;;;;;;9.48;1.90;;;4.20;99.90;;;;;;5062597;28;20488;-73
2023/01/16 04:54:14;;;;;;;4.47;1.75;;;4.20;99.90;;;;;;5068288;28;20074;-74
2023/01/16 04:56:41;;;;;;;7.95;1.70;;;4.20;99.90;;;;;;5056162;28;20335;-74
2023/01/16 04:59:07;;;;;;;5.70;1.30;;;4.20;99.90;;;;;;5062648;28;20039;-74
2023/01/16 05:01:34;;;;;;;4.80;1.35;;;4.20;99.90;;;;;;5060144;28;20459;-73
2023/01/16 05:04:01;;;;;;;4.97;1.52;;;4.20;99.90;;;;;;5058601;28;20466;-73
2023/01/16 05:06:27;;;;;;;5.18;1.45;;;4.30;99.90;;;;;;5053177;28;20033;-74
2023/01/16 05:08:53;;;;;;;6.07;1.77;;;4.30;99.90;;;;;;5068391;28;20495;-74
2023/01/16 05:11:18;;;;;;;4.60;1.65;;;4.30;99.90;;;;;;5056947;28;20111;-73
2023/01/16 05:13:44;;;;;;;5.85;1.63;;;4.40;99.90;;;;;;5056689;28;20029;-74
2023/01/16 05:16:09;;;;;;;5.35;1.85;;;4.40;99.90;;;;;;5058130;28;20013;-74
2023/01/16 05:18:35;;;;;;;9.73;1.45;;;4.40;99.90;;;;;;5063049;28;20635;-74
2023/01/16 05:21:01;;;;;;;6.68;1.55;;;4.40;99.90;;;;;;5058719;28;20013;-74
2023/01/16 05:23:27;;;;;;;3.90;1.63;;;4.40;99.90;;;;;;5062137;28;20029;-74
2023/01/16 05:25:53;;;;;;;4.82;1.40;;;4.30;99.90;;;;;;5057515;28;20024;-73
2023/01/16 05:28:19;;;;;;;4.53;1.42;;;4.30;99.90;;;;;;5059562;28;20033;-74
2023/01/16 05:30:47;;;;;;;3.15;1.08;;;4.30;99.90;;;;;;5066086;28;20044;-73
2023/01/16 05:33:13;;;;;;;6.53;1.33;;;4.30;99.90;;;;;;5073186;28;20385;-74
2023/01/16 05:35:38;;;;;;;9.52;1.73;;;4.30;99.90;;;;;;5053954;28;20021;-73
2023/01/16 05:38:04;;;;;;;3.95;1.20;;;4.30;99.90;;;;;;5061204;28;20024;-73
2023/01/16 05:40:30;;;;;;;6.35;1.50;;;4.30;99.90;;;;;;5065493;28;20111;-72
2023/01/16 05:42:56;;;;;;;6.88;1.40;;;4.20;99.90;;;;;;5054853;28;20074;-73
2023/01/16 05:45:21;;;;;;;7.60;1.52;;;4.20;99.90;;;;;;5059970;28;20028;-73
2023/01/16 05:47:47;;;;;;;3.80;1.15;;;4.20;99.90;;;;;;5072287;28;20121;-73
2023/01/16 05:50:13;;;;;;;3.83;1.10;;;4.30;99.90;;;;;;5067874;28;20113;-73
2023/01/16 05:52:38;;;;;;;5.15;1.30;;;4.20;99.90;;;;;;5059809;28;20035;-73
2023/01/16 05:55:05;;;;;;;3.63;1.50;;;4.20;99.90;;;;;;5066324;28;20114;-73
2023/01/16 05:57:30;;;;;;;3.50;1.10;;;4.20;99.90;;;;;;5062755;28;20036;-73
2023/01/16 05:59:56;;;;;;;5.45;1.65;;;4.20;99.90;;;;;;5068041;28;20516;-73
2023/01/16 06:02:21;;;;;;;4.60;1.33;;;4.20;99.90;;;;;;5065358;28;20094;-73
2023/01/16 06:04:48;;;;;;;3.38;1.15;;;4.20;99.90;;;;;;5064898;28;20871;-73
2023/01/16 06:07:14;;;;;;;4.93;1.30;;;4.10;99.90;;;;;;5072265;28;20134;-73
2023/01/16 06:09:40;;;;;;;4.30;1.08;;;4.10;99.90;;;;;;5066434;28;20060;-73
2023/01/16 06:12:09;;;;;;;4.40;1.25;;;4.10;99.90;;;;;;5065849;28;20815;-73
2023/01/16 06:14:35;;;;;;;4.57;1.15;;;4.10;99.90;;;;;;5063373;28;20024;-73
2023/01/16 06:17:01;;;;;;;2.80;1.20;;;4.10;99.90;;;;;;5073365;28;20035;-73
2023/01/16 06:19:26;;;;;;;4.40;1.25;;;4.10;99.90;;;;;;5066756;28;20691;-73
2023/01/16 06:21:52;;;;;;;4.65;1.23;;;4.10;99.90;;;;;;5061417;28;20036;-74
2023/01/16 06:24:17;;;;;;;4.07;1.10;;;4.10;99.90;;;;;;5062688;28;20060;-73
2023/01/16 06:26:43;;;;;;;4.85;1.20;;;4.10;99.90;;;;;;5066235;28;20708;-74
2023/01/16 06:29:09;;;;;;;2.65;1.20;;;4.10;99.90;;;;;;5063671;28;20440;-73
2023/01/16 06:31:35;;;;;;;5.35;1.45;;;4.10;99.90;;;;;;5051107;28;20016;-73
2023/01/16 06:34:01;;;;;;;5.07;1.10;;;4.10;99.90;;;;;;5067560;28;20027;-74
2023/01/16 06:36:27;;;;;;;4.55;1.10;;;4.10;99.90;;;;;;5067172;28;20028;-73
2023/01/16 06:38:52;;;;;;;5.60;1.50;;;4.20;99.90;;;;;;5058433;28;20060;-73
2023/01/16 06:41:18;;;;;;;6.10;1.20;;;4.20;99.90;;;;;;5068738;28;20109;-74
2023/01/16 06:43:43;;;;;;;5.53;1.30;;;4.20;99.90;;;;;;5067210;28;20362;-74
2023/01/16 06:46:10;;;;;;;6.60;1.38;;;4.20;99.90;;;;;;5069713;28;20139;-74
2023/01/16 06:48:35;;;;;;;4.85;1.42;;;4.20;99.90;;;;;;5069095;28;21199;-74
2023/01/16 06:51:01;;;;;;;5.43;1.40;;;4.30;99.90;;;;;;5058903;28;20103;-73
2023/01/16 06:53:27;;;;;;;3.50;1.50;;;4.20;99.90;;;;;;5060710;28;20025;-73
2023/01/16 06:55:53;;;;;;;5.43;1.40;;;4.30;99.90;;;;;;5080503;28;20598;-72
2023/01/16 06:58:18;;;;;;;5.03;1.30;;;4.30;99.90;;;;;;5066195;28;20503;-72
2023/01/16 07:00:44;;;;;;;6.35;1.02;;;4.30;99.90;;;;;;5057840;28;20110;-72
2023/01/16 07:03:10;;;;;;;4.18;1.33;;;4.30;99.90;;;;;;5067990;28;20317;-73
2023/01/16 07:05:36;;;;;;;6.53;2.03;;;4.30;99.90;;;;;;5064776;28;20037;-73
2023/01/16 07:08:02;;;;;;;5.82;1.83;;;4.40;99.90;;;;;;5050034;28;20056;-73
2023/01/16 07:10:28;;;;;;;4.40;1.40;;;4.40;99.90;;;;;;5063428;28;20029;-73
2023/01/16 07:12:54;;;;;;;4.53;1.63;;;4.40;99.90;;;;;;5058471;28;20106;-73
2023/01/16 07:23:43;;;;;;;4.88;1.25;;;4.40;99.90;;;;;;5053127;28;20036;-73
2023/01/16 07:26:10;;;;;;;6.13;1.35;;;4.50;99.90;;;;;;5066708;28;20032;-73
2023/01/16 07:28:37;;;;;;;5.72;1.20;;;4.40;99.90;;;;;;5067666;28;20029;-73
2023/01/16 07:31:05;;;;;;;3.95;1.70;;;4.40;99.90;;;;;;5066110;28;20024;-73
2023/01/16 07:33:31;;;;;;;5.35;1.50;;;4.40;99.90;;;;;;5063406;28;20050;-73
2023/01/16 07:35:56;;;;;;;6.38;1.40;;;4.40;99.90;;;;;;5066222;28;20028;-73
2023/01/16 07:38:22;;;;;;;5.85;1.20;;;4.40;99.90;;;;;;5060052;28;20915;-73
2023/01/16 07:40:48;;;;;;;4.32;1.42;;;4.40;99.90;;;;;;5061898;28;20028;-73
2023/01/16 07:43:13;;;;;;;6.82;1.27;;;4.40;99.90;;;;;;5067464;28;20066;-73
2023/01/16 07:45:39;;;;;;;4.05;1.13;;;4.40;99.90;;;;;;5061983;28;20055;-73
2023/01/16 07:48:05;;;;;;;4.70;1.20;;;4.40;99.90;;;;;;5056297;28;20040;-74
2023/01/16 07:50:31;;;;;;;5.40;1.50;;;4.40;99.90;;;;;;5057904;28;20028;-74
2023/01/16 07:52:57;;;;;;;6.35;1.67;;;4.40;99.90;;;;;;5070340;28;20039;-73
2023/01/16 07:55:23;;;;;;;5.90;2.03;;;4.40;99.90;;;;;;5066638;28;20021;-73
2023/01/16 07:57:49;;;;;;;6.07;1.60;;;4.40;99.90;;;;;;5063982;28;20024;-72
2023/01/16 08:00:15;;;;;;;8.55;1.52;;;4.40;99.90;;;;;;5061029;28;20175;-73
2023/01/16 08:02:41;;;;;;;4.80;1.30;;;4.40;99.90;;;;;;5066708;28;20036;-72
2023/01/16 08:05:07;;;;;;;5.72;1.55;;;4.40;99.90;;;;;;5065255;28;20081;-72
2023/01/16 08:07:33;;;;;;;6.70;1.73;;;4.30;99.90;;;;;;5067126;28;20531;-72
2023/01/16 08:09:59;;;;;;;4.90;1.50;;;4.30;99.90;;;;;;5054441;28;20028;-72
2023/01/16 08:12:25;;;;;;;4.15;1.77;;;4.30;99.90;;;;;;5060005;28;20124;-72
2023/01/16 08:14:51;;;;;;;6.18;2.35;;;4.30;99.90;;;;;;5058353;28;20507;-73
2023/01/16 08:17:17;;;;;;;5.47;2.40;;;4.30;99.90;;;;;;5065684;28;20032;-72
2023/01/16 08:19:42;;;;;;;8.00;2.10;;;4.30;99.90;;;;;;5066160;28;20016;-72
2023/01/16 08:22:08;;;;;;;5.85;2.50;;;4.30;99.90;;;;;;5064453;28;20811;-72
2023/01/16 08:24:34;;;;;;;3.22;1.45;;;4.30;99.90;;;;;;5061530;28;20045;-73
2023/01/16 08:26:59;;;;;;;6.70;1.48;;;4.30;99.90;;;;;;5071232;28;20028;-73
2023/01/16 08:29:25;;;;;;;5.72;2.90;;;4.30;99.90;;;;;;5072650;28;20025;-72
2023/01/16 08:31:51;;;;;;;6.03;1.80;;;4.30;99.90;;;;;;5069234;28;20592;-72
2023/01/16 08:34:17;;;;;;;6.40;1.40;;;4.30;99.90;;;;;;5068768;28;20086;-73
2023/01/16 08:36:43;;;;;;;8.13;1.52;;;4.40;99.90;;;;;;5067521;28;20420;-72
2023/01/16 08:39:10;;;;;;;5.25;1.30;;;4.40;99.90;;;;;;5065041;28;20073;-72
2023/01/16 08:52:46;;;;;;;4.32;1.40;;;4.60;99.90;;;;;;5061490;28;20042;-73
2023/01/16 08:55:12;;;;;;;6.03;1.73;;;4.70;99.90;;;;;;5065385;28;20440;-73
2023/01/16 08:57:38;;;;;;;3.95;1.00;;;4.70;99.90;;;;;;5064986;28;20115;-73
2023/01/16 09:00:06;;;;;;;3.95;1.10;;;4.80;99.90;;;;;;5063343;28;20201;-72
2023/01/16 09:02:34;;;;;;;4.13;1.00;;;4.80;99.90;;;;;;5056538;28;20123;-72
2023/01/16 09:05:00;;;;;;;4.18;0.90;;;4.80;99.90;;;;;;5057975;28;20037;-73
2023/01/16 09:07:25;;;;;;;2.78;0.88;;;4.80;99.90;;;;;;5064130;28;20032;-73
2023/01/16 09:09:51;;;;;;;4.07;1.30;;;4.90;99.90;;;;;;5062032;28;20013;-73
2023/01/16 09:15:02;;;;;;;4.00;0.90;;;4.90;99.90;;;;;;5053435;28;20039;-73
2023/01/16 09:17:28;;;;;;;4.43;0.90;;;4.90;99.90;;;;;;5071073;28;20028;-73
2023/01/16 09:19:54;;;;;;;5.18;1.00;;;5.00;99.90;;;;;;5055918;28;20500;-73
2023/01/16 09:22:20;;;;;;;6.05;1.17;;;4.90;99.90;;;;;;5059186;28;20107;-72
2023/01/16 09:24:45;;;;;;;6.70;1.20;;;5.00;99.90;;;;;;5050005;28;20115;-72
2023/01/16 09:27:14;;;;;;;4.30;1.17;;;5.00;99.90;;;;;;5052904;28;20025;-72
2023/01/16 09:29:41;;;;;;;4.35;1.30;;;5.00;99.90;;;;;;5057813;28;20406;-72
2023/01/16 09:32:08;;;;;;;3.28;1.00;;;5.00;99.90;;;;;;5056018;28;20028;-73
2023/01/16 09:34:38;;;;;;;2.78;0.82;;;5.10;99.90;;;;;;5053908;28;20037;-72
2023/01/16 09:37:05;;;;;;;4.25;1.02;;;5.10;99.90;;;;;;5060960;28;20439;-73
2023/01/16 09:39:32;;;;;;;4.20;1.10;;;5.20;99.90;;;;;;5065569;28;20441;-73
2023/01/16 09:45:16;;;;;;;3.42;0.80;;;5.30;99.90;;;;;;5057909;28;20477;-72
2023/01/16 09:47:47;;;;;;;4.78;1.08;;;5.30;99.90;;;;;;5055910;28;20035;-73
2023/01/16 09:50:27;;;;;;;2.55;0.90;;;5.40;99.90;;;;;;5062466;28;20060;-73
2023/01/16 09:58:36;;;;;;;3.95;1.05;;;5.40;99.90;;;;;;5056184;28;20511;-72
2023/01/16 10:01:04;;;;;;;;;;;5.50;99.90;;;;;;5056052;28;20024;-73
2023/01/16 10:03:30;;;;;;;4.00;1.73;;;5.50;99.90;;;;;;5055164;28;19908;-74
2023/01/16 10:06:09;;;;;;;5.63;0.90;;;5.50;99.90;;;;;;5061844;28;20033;-74
2023/01/16 10:08:57;;;;;;;3.00;1.05;;;5.50;99.90;;;;;;5053836;28;20040;-74
2023/01/16 10:11:26;;;;;;;2.72;0.68;;;5.60;99.90;;;;;;5060380;28;20017;-74
2023/01/16 10:14:19;;;;;;;5.07;1.00;;;5.50;99.90;;;;;;5060887;28;20480;-74
2023/01/16 10:16:50;;;;;;;3.35;0.90;;;5.60;99.90;;;;;;5045571;28;20032;-74
2023/01/16 10:19:48;;;;;;;3.17;0.80;;;5.60;99.90;;;;;;5065281;28;20040;-74
2023/01/16 10:22:51;;;;;;;5.90;0.80;;;5.60;99.90;;;;;;5022748;28;20032;-74
2023/01/16 10:25:24;;;;;;;3.78;1.08;;;5.60;99.90;;;;;;5048518;28;20060;-74
2023/01/16 10:28:08;;;;;;;2.20;0.80;;;5.60;99.90;;;;;;5059014;28;20111;-74
2023/01/16 10:30:51;;;;;;;3.80;0.85;;;5.60;99.90;;;;;;5068344;28;20072;-74
2023/01/16 10:33:23;;;;;;;2.35;0.77;;;5.60;99.90;;;;;;5064477;28;20024;-74
2023/01/16 10:35:51;;;;;;;3.15;1.00;;;5.60;99.90;;;;;;5066243;28;20047;-74
2023/01/16 10:38:43;;;;;;;4.90;1.40;;;5.50;99.90;;;;;;5074022;28;20031;-73
2023/01/16 10:49:59;;;;;;;5.97;1.35;;;5.50;99.90;;;;;;5055481;28;20043;-72
2023/01/16 10:52:25;;;;;;;3.17;0.80;;;5.50;99.90;;;;;;5070637;28;20640;-79
2023/01/16 10:54:58;;;;;;;3.00;0.88;;;5.50;99.90;;;;;;5060643;28;20029;-80
2023/01/16 10:57:24;;;;;;;3.47;0.70;;;5.50;99.90;;;;;;5058525;28;20105;-81
2023/01/16 10:59:54;;;;;;;1.77;0.70;;;5.50;99.90;;;;;;5061049;28;20055;-79
2023/01/16 11:02:29;;;;;;;4.32;0.80;;;5.50;99.90;;;;;;5053534;28;20086;-79
2023/01/16 11:04:54;;;;;;;4.93;0.68;;;5.60;99.90;;;;;;5065474;28;20077;-79
2023/01/16 11:07:21;;;;;;;3.22;0.93;;;;;;;;;;5059767;28;20037;-81
2023/01/16 11:09:47;;;;;;;3.55;0.65;;;5.50;99.90;;;;;;5068177;28;20122;-81
2023/01/16 11:20:49;;;;;;;3.60;0.80;;;5.50;99.90;;;;;;5060513;28;20077;-81
2023/01/16 11:23:21;;;;;;;1.40;0.55;;;5.50;99.90;;;;;;5065215;28;20040;-80
2023/01/16 11:25:49;;;;;;;3.92;0.80;;;5.50;99.90;;;;;;5055807;28;20052;-79
2023/01/16 11:28:26;;;;;;;3.35;1.00;;;5.50;99.90;;;;;;5071590;28;20092;-80
2023/01/16 11:30:56;;;;;;;0.75;0.50;;;5.40;99.90;;;;;;5063988;28;20024;-80
2023/01/16 11:33:44;;;;;;;2.92;0.60;;;5.40;99.90;;;;;;5077608;28;20027;-80
2023/01/16 11:36:10;;;;;;;2.95;0.70;;;5.40;99.90;;;;;;5066297;28;20037;-80
2023/01/16 11:38:42;;;;;;;3.65;1.23;;;5.50;99.90;;;;;;5071321;28;20224;-79
2023/01/16 11:41:08;;;;;;;3.13;0.97;;;5.40;99.90;;;;;;5061898;28;20031;-80
2023/01/16 11:46:21;;;;;;;2.33;1.00;;;5.40;99.90;;;;;;5069875;28;20068;-79
2023/01/16 11:48:52;;;;;;;2.97;0.80;;;;;;;;;;5053797;28;20044;-80
2023/01/16 11:51:23;;;;;;;3.97;0.98;;;5.30;99.90;;;;;;5069703;28;20024;-80
2023/01/16 11:53:51;;;;;;;4.15;1.20;;;5.30;99.90;;;;;;5066457;28;20158;-79
2023/01/16 11:56:30;;;;;;;2.63;1.38;;;5.20;99.90;;;;;;5074483;28;20051;-81
2023/01/16 11:59:23;;;;;;;2.80;1.10;;;5.20;99.90;;;;;;5065126;28;20020;-81
2023/01/16 12:02:18;;;;;;;3.42;1.00;;;5.10;99.90;;;;;;5058628;28;20500;-81
2023/01/16 12:05:53;;;;;;;6.88;0.98;;;5.10;99.90;;;;;;5063774;28;20039;-80
2023/01/16 12:08:19;;;;;;;0.95;0.80;;;5.10;99.90;;;;;;5042323;28;20139;-81
2023/01/16 12:11:08;;;;;;;3.28;0.90;;;5.00;99.90;;;;;;5058712;28;20050;-80
2023/01/16 12:16:44;;;;;;;5.10;1.10;;;4.90;99.90;;;;;;5064067;28;20043;-80
2023/01/16 12:19:15;;;;;;;1.00;0.90;;;4.90;99.90;;;;;;5061982;28;20039;-78
2023/01/16 12:21:46;;;;;;;2.85;1.30;;;4.80;99.90;;;;;;5066030;28;20103;-77
2023/01/16 12:24:53;;;;;;;4.90;1.63;;;4.80;99.90;;;;;;5066158;28;20032;-78
2023/01/16 12:27:41;;;;;;;2.28;1.10;;;4.70;99.90;;;;;;5049442;28;20067;-77
2023/01/16 12:30:38;;;;;;;4.88;1.95;;;4.80;99.90;;;;;;5060984;28;20447;-78
2023/01/16 12:33:18;;;;;;;2.45;1.35;;;;;;;;;;5082752;28;20048;-77
2023/01/16 12:36:01;;;;;;;2.85;1.50;;;4.60;99.90;;;;;;5073129;28;20085;-76
2023/01/16 12:38:42;;;;;;;4.25;1.92;;;4.60;99.90;;;;;;5064448;28;20035;-77
2023/01/16 12:44:29;;;;;;;1.98;0.82;;;4.60;99.90;;;;;;5076738;28;20062;-78
2023/01/16 12:47:02;;;;;;;1.58;1.00;;;4.60;99.90;;;;;;5069526;28;20028;-78
2023/01/16 12:50:19;;;;;;;1.75;0.70;;;4.50;99.90;;;;;;5070651;28;20035;-80
2023/01/16 12:52:51;;;;;;;2.33;0.75;;;;;;;;;;5040841;28;20056;-75
2023/01/16 12:55:31;;;;;;;3.30;1.13;;;;;;;;;;5072897;28;20659;-76
2023/01/16 12:58:09;;;;;;;2.63;0.93;;;;;;;;;;5074778;28;20070;-75
2023/01/16 13:00:55;;;;;;;1.30;0.70;;;;;;;;;;5074510;28;20165;-75
2023/01/16 13:03:46;;;;;;;1.30;0.82;;;;;;;;;;5063223;28;20028;-74
2023/01/16 13:06:15;;;;;;;0.93;0.80;;;;;;;;;;5059518;28;20179;-76
2023/01/16 13:08:43;;;;;;;1.67;0.80;;;;;;;;;;5059784;28;20946;-74
2023/01/16 13:14:10;;;;;;;1.02;0.90;;;4.50;99.90;;;;;;5060223;28;20058;-76
2023/01/16 13:16:53;;;;;;;1.88;0.63;;;4.50;99.90;;;;;;5067107;28;20090;-75
2023/01/16 13:19:23;;;;;;;1.25;0.50;;;4.50;99.90;;;;;;5053363;28;20028;-77
2023/01/16 13:22:04;;;;;;;2.35;0.70;;;4.50;99.90;;;;;;5054339;28;20549;-77
2023/01/16 13:24:47;;;;;;;1.73;0.60;;;4.50;99.90;;;;;;5062821;28;20020;-76
2023/01/16 13:27:39;;;;;;;0.60;0.40;;;4.50;99.90;;;;;;5059059;28;20115;-77
2023/01/16 13:30:10;;;;;;;1.73;0.40;;;4.50;99.90;;;;;;5055684;28;20041;-79
2023/01/16 13:32:50;;;;;;;1.83;0.80;;;4.50;99.90;;;;;;4705207;28;10000214;-73
2023/01/16 13:35:47;;;;;;;2.55;0.70;;;4.50;99.90;;;;;;5064032;28;20035;-73
2023/01/16 13:38:28;;;;;;;3.05;1.02;;;4.50;99.90;;;;;;5059054;28;20036;-74
2023/01/16 13:41:14;;;;;;;1.25;0.98;;;4.50;99.90;;;;;;5054868;28;20504;-76
2023/01/16 13:46:46;;;;;;;0.82;0.75;;;4.40;99.90;;;;;;5064301;28;20530;-74
2023/01/16 13:49:24;;;;;;;1.48;0.90;;;4.40;99.90;;;;;;5054379;28;20067;-77
2023/01/16 13:51:51;;;;;;;0.70;0.70;;;4.40;99.90;;;;;;5063193;28;20608;-77
2023/01/16 13:54:29;;;;;;;0.95;0.60;;;4.40;99.90;;;;;;5065757;28;20027;-74
2023/01/16 13:57:07;;;;;;;2.20;0.60;;;4.40;99.90;;;;;;5050152;28;20032;-74
2023/01/16 13:59:47;;;;;;;0.90;0.70;;;4.40;99.90;;;;;;5064038;28;20485;-74
2023/01/16 14:02:22;;;;;;;0.75;0.60;;;4.40;99.90;;;;;;5068271;28;20032;-75
2023/01/16 14:05:16;;;;;;;1.38;0.73;;;4.40;99.90;;;;;;5058653;28;20575;-75
2023/01/16 14:10:59;;;;;;;1.60;0.60;;;4.40;99.90;;;;;;5062358;28;20087;-80
2023/01/16 14:13:39;;;;;;;0.90;0.80;;;4.40;99.90;;;;;;5066488;28;20530;-78
2023/01/16 14:16:30;;;;;;;0.90;0.60;;;4.40;99.90;;;;;;5060762;28;20025;-76
2023/01/16 14:18:56;;;;;;;0.75;0.60;;;4.50;99.90;;;;;;5058151;28;20074;-76
2023/01/16 14:21:21;;;;;;;0.65;0.65;;;4.50;99.90;;;;;;5066116;28;20484;-76
2023/01/16 14:24:02;;;;;;;1.02;0.70;;;4.50;99.90;;;;;;5085925;28;20434;-77
2023/01/16 14:26:37;;;;;;;0.80;0.75;;;4.50;99.90;;;;;;5062555;28;20028;-78
2023/01/16 14:29:30;;;;;;;1.40;0.98;;;4.60;99.90;;;;;;5058225;28;20028;-77
2023/01/16 14:32:13;;;;;;;1.85;1.10;;;4.60;99.90;;;;;;5063788;28;20071;-79
2023/01/16 14:34:59;;;;;;;1.52;0.88;;;4.60;99.90;;;;;;5062049;28;20028;-75